الصفحة الرئيسية
METAR-TAF:

METAR-TAF

مطار :

Coolangatta, أستراليا

دائرة عرض: 28-10S, خط طول: 153-30E, ارتفاع: 6 متر

مراقبة الطقس الحالي

تاريخ ووقت الإصدار 21 دقيقة قبل الساعة 17:00UTC
ريح 5 عقدة من الجنوب الغربي
درجة الحرارة 10°درجة مئوية
الرطوبة 76%
ضغط 1014 hPa
الرؤية 10 كم أو أكثر

METAR: YBCG 221700Z AUTO 22005KT 9999 // NCD 10/06 Q1014

زمن: 03:21 (17:21 UTC)

توقعات

تاريخ ووقت الإصدار 3ساعات و 3 دقيقة قبل الساعة 14:18UTC
التوقعات صالحة من22 الساعة 15 UTC إلى 23 الساعة 12 UTC
ريح 8 عقدة من الغرب
الرؤية 10 كم أو أكثر
الغيوم لا تقل 1500 م ولا وجود لمزنة ركامية السحاب الأسود
من 23 الساعة 0100 UTC
ريح 12 عقدة من الجنوب الشرقي
الرؤية 10 كم أو أكثر
غيوم قليلة على ارتفاع 4500 قدم

TAF: YBCG 221418Z 2215/2312 26008KT CAVOK FM230100 14012KT 9999 FEW045

أرصاد الطقس والتوقعات من أكثر من 4000 مطار (تقارير الطقس للمطار METAR والتنبؤ بالطقس بالمطارTAF).

المحطات المتاحة هي النقط الصفراء والحمراء على الخريطة.

حرك المؤشر فوق النقطة لمعرفة اسم المحطة.

ثم انقر لمعرفة أرصاد وتوقعات الطقس.

لتغيير الخارطة: اضغط على الأزرار الخضراء مع رمز الصليب الأسود للتكبير. على الزر الأخضر مع شرطة للتصغير، أو على الأسهم الخضراء للخرائط المجاورة.


METAR-TAF: